createdAt,value
2022-09-10T00:01:40.042Z,68.51
2022-09-10T00:04:12.806Z,69.08
2022-09-10T00:06:42.536Z,69.63
2022-09-10T00:09:12.911Z,70.70
2022-09-10T00:11:42.346Z,70.46
2022-09-10T00:14:18.561Z,70.53
2022-09-10T00:16:48.163Z,70.09
2022-09-10T00:19:17.723Z,69.75
2022-09-10T00:21:46.964Z,69.90
2022-09-10T00:24:15.607Z,70.47
2022-09-10T00:26:44.294Z,70.80
2022-09-10T00:29:17.997Z,71.44
2022-09-10T00:31:47.362Z,71.28
2022-09-10T00:34:16.191Z,71.22
2022-09-10T00:36:44.878Z,70.90
2022-09-10T00:39:16.614Z,70.30
2022-09-10T00:41:47.575Z,70.33
2022-09-10T00:44:40.743Z,70.25
2022-09-10T00:47:22.632Z,70.63
2022-09-10T00:50:07.088Z,70.89
2022-09-10T00:52:39.609Z,69.92
2022-09-10T00:55:10.233Z,70.99
2022-09-10T00:57:39.803Z,70.79
2022-09-10T01:00:12.610Z,70.59
2022-09-10T01:02:43.351Z,70.82
2022-09-10T01:05:13.399Z,71.00
2022-09-10T01:07:43.227Z,70.32
2022-09-10T01:10:18.502Z,70.49
2022-09-10T01:13:25.838Z,70.35
2022-09-10T01:16:24.096Z,70.16
2022-09-10T01:19:12.104Z,69.66
2022-09-10T01:22:08.341Z,69.41
2022-09-10T01:24:58.529Z,69.23
2022-09-10T01:27:35.923Z,69.36
2022-09-10T01:30:15.033Z,69.06
2022-09-10T01:32:46.606Z,68.80
2022-09-10T01:35:28.750Z,68.84
2022-09-10T01:38:05.469Z,68.69
2022-09-10T01:40:37.751Z,68.50
2022-09-10T01:43:12.095Z,68.55
2022-09-10T01:46:14.450Z,68.58
2022-09-10T01:48:57.885Z,68.33
2022-09-10T01:51:53.603Z,68.20
2022-09-10T01:54:49.425Z,68.21
2022-09-10T01:57:39.718Z,68.30
2022-09-10T02:00:15.611Z,68.36
2022-09-10T02:03:11.616Z,68.16
2022-09-10T02:05:44.691Z,68.45
2022-09-10T02:08:17.267Z,69.12
2022-09-10T02:10:56.909Z,69.58
2022-09-10T02:13:31.313Z,70.61
2022-09-10T02:16:37.902Z,70.21
2022-09-10T02:19:08.583Z,70.57
2022-09-10T02:21:37.943Z,70.85
2022-09-10T02:24:10.229Z,70.44
2022-09-10T02:26:44.429Z,70.17
2022-09-10T02:29:15.689Z,70.18
2022-09-10T02:31:44.949Z,70.09
2022-09-10T02:34:16.408Z,69.95
2022-09-10T02:36:47.266Z,70.10
2022-09-10T02:39:16.263Z,70.15
2022-09-10T02:41:48.535Z,69.87
2022-09-10T02:44:18.091Z,69.89
2022-09-10T02:46:46.723Z,69.63
2022-09-10T02:49:15.722Z,70.54
2022-09-10T02:51:45.016Z,71.62
2022-09-10T02:54:14.011Z,70.66
2022-09-10T02:56:44.131Z,71.76
2022-09-10T02:59:13.023Z,71.67
2022-09-10T03:01:42.758Z,72.49
2022-09-10T03:04:11.625Z,72.82
2022-09-10T03:06:41.339Z,72.74
2022-09-10T03:09:11.547Z,72.16
2022-09-10T03:11:41.167Z,72.34
2022-09-10T03:14:11.213Z,72.01
2022-09-10T03:16:41.338Z,71.61
2022-09-10T03:19:09.990Z,71.55
2022-09-10T03:21:39.647Z,71.67
2022-09-10T03:24:10.642Z,72.31
2022-09-10T03:26:39.738Z,72.08
2022-09-10T03:29:08.736Z,72.53
2022-09-10T03:31:40.177Z,72.75
2022-09-10T03:34:12.912Z,71.92
2022-09-10T03:36:42.370Z,72.76
2022-09-10T03:39:11.361Z,73.39
2022-09-10T03:41:40.071Z,73.61
2022-09-10T03:44:10.678Z,74.75
2022-09-10T03:46:40.082Z,76.05
2022-09-10T03:49:09.480Z,78.55
2022-09-10T03:51:38.176Z,78.25
2022-09-10T03:54:07.168Z,78.28
2022-09-10T03:56:35.758Z,79.66
2022-09-10T03:59:04.443Z,79.83
2022-09-10T04:01:33.332Z,78.83
2022-09-10T04:04:03.423Z,79.71
2022-09-10T04:06:35.930Z,80.22
2022-09-10T04:09:05.744Z,80.61
2022-09-10T04:11:35.305Z,80.94
2022-09-10T04:14:04.342Z,81.56
2022-09-10T04:16:33.190Z,82.32
2022-09-10T04:19:02.065Z,82.48
2022-09-10T04:21:32.038Z,82.71
2022-09-10T04:24:01.138Z,82.11
2022-09-10T04:26:30.558Z,82.25
2022-09-10T04:28:59.682Z,83.06
2022-09-10T04:31:28.565Z,82.64
2022-09-10T04:34:02.335Z,82.60
2022-09-10T04:36:32.347Z,82.40
2022-09-10T04:39:01.242Z,81.77
2022-09-10T04:41:30.747Z,81.45
2022-09-10T04:43:59.741Z,81.60
2022-09-10T04:46:28.529Z,81.42
2022-09-10T04:49:00.799Z,81.71
2022-09-10T04:51:29.587Z,81.20
2022-09-10T04:53:59.746Z,81.10
2022-09-10T04:56:33.208Z,81.47
2022-09-10T04:59:01.802Z,81.53
2022-09-10T05:01:35.200Z,81.21
2022-09-10T05:04:05.208Z,80.97
2022-09-10T05:06:37.073Z,80.16
2022-09-10T05:09:07.498Z,79.96
2022-09-10T05:11:37.533Z,80.26
2022-09-10T05:14:07.824Z,79.92
2022-09-10T05:16:37.396Z,80.17
2022-09-10T05:19:06.747Z,80.21
2022-09-10T05:21:42.243Z,80.35
2022-09-10T05:24:12.214Z,80.39
2022-09-10T05:26:42.321Z,80.21
2022-09-10T05:29:12.450Z,79.94
2022-09-10T05:31:42.289Z,79.97
2022-09-10T05:34:11.259Z,79.75
2022-09-10T05:36:41.774Z,79.56
2022-09-10T05:39:10.891Z,79.14
2022-09-10T05:41:40.595Z,79.07
2022-09-10T05:44:09.384Z,78.41
2022-09-10T05:46:38.250Z,78.09
2022-09-10T05:49:13.399Z,78.12
2022-09-10T05:51:42.714Z,78.25
2022-09-10T05:54:13.017Z,77.70
2022-09-10T05:56:42.647Z,77.46
2022-09-10T05:59:11.539Z,77.50
2022-09-10T06:01:44.970Z,77.32
2022-09-10T06:04:13.931Z,77.50
2022-09-10T06:06:43.026Z,77.32
2022-09-10T06:09:14.990Z,77.47
2022-09-10T06:12:13.168Z,77.15
2022-09-10T06:14:42.572Z,77.08
2022-09-10T06:17:12.690Z,76.86
2022-09-10T06:19:45.166Z,76.49
2022-09-10T06:22:15.506Z,76.35
2022-09-10T06:24:49.608Z,75.99
2022-09-10T06:27:19.009Z,75.71
2022-09-10T06:29:48.001Z,75.57
2022-09-10T06:32:16.828Z,74.58
2022-09-10T06:34:46.502Z,73.91
2022-09-10T06:37:15.391Z,73.54
2022-09-10T06:39:44.220Z,73.34
2022-09-10T06:42:13.281Z,72.63
2022-09-10T06:45:08.488Z,72.28
2022-09-10T06:48:36.723Z,71.85
2022-09-10T06:50:51.024Z,71.46
2022-09-10T06:53:24.208Z,71.28
2022-09-10T06:55:53.820Z,71.40
2022-09-10T06:58:24.946Z,71.23
2022-09-10T07:00:53.896Z,70.92
2022-09-10T07:03:24.464Z,71.07
2022-09-10T07:05:56.102Z,70.76
2022-09-10T07:08:28.523Z,70.29
2022-09-10T07:11:05.240Z,69.47
2022-09-10T07:13:35.243Z,68.80
2022-09-10T07:16:05.297Z,68.09
2022-09-10T07:18:34.731Z,67.62
2022-09-10T07:21:09.299Z,67.74
2022-09-10T07:23:45.464Z,67.25
2022-09-10T07:26:22.706Z,66.60
2022-09-10T07:28:54.361Z,66.69
2022-09-10T07:31:30.367Z,65.90
2022-09-10T07:34:04.630Z,65.23
2022-09-10T07:36:33.425Z,65.34
2022-09-10T07:39:04.777Z,64.86
2022-09-10T07:41:37.458Z,64.11
2022-09-10T07:44:09.014Z,63.34
2022-09-10T07:46:41.382Z,62.48
2022-09-10T07:49:13.539Z,62.60
2022-09-10T07:51:44.018Z,62.74
2022-09-10T07:54:17.301Z,62.08
2022-09-10T07:56:53.031Z,62.70
2022-09-10T07:59:22.233Z,62.94
2022-09-10T08:02:02.266Z,61.94
2022-09-10T08:04:36.615Z,61.16
2022-09-10T08:07:08.052Z,60.98
2022-09-10T08:09:38.784Z,60.89
2022-09-10T08:12:08.873Z,60.60
2022-09-10T08:14:40.354Z,59.92
2022-09-10T08:17:09.762Z,59.80
2022-09-10T08:19:41.940Z,59.49
2022-09-10T08:22:13.713Z,58.69
2022-09-10T08:24:49.180Z,58.95
2022-09-10T08:27:18.327Z,58.69
2022-09-10T08:29:48.145Z,58.37
2022-09-10T08:32:18.055Z,58.76
2022-09-10T08:34:46.748Z,58.59
2022-09-10T08:37:16.975Z,57.89
2022-09-10T08:39:46.223Z,58.10
2022-09-10T08:42:22.938Z,58.06
2022-09-10T08:45:18.764Z,57.86
2022-09-10T08:48:03.525Z,56.56
2022-09-10T08:50:50.646Z,57.09
2022-09-10T08:53:28.585Z,57.06
2022-09-10T08:56:06.571Z,57.41
2022-09-10T08:58:52.031Z,57.73
2022-09-10T09:01:31.331Z,57.41
2022-09-10T09:04:06.304Z,56.77
2022-09-10T09:06:47.175Z,56.98
2022-09-10T09:09:16.887Z,57.09
2022-09-10T09:11:57.237Z,56.79
2022-09-10T09:14:46.116Z,56.79
2022-09-10T09:17:29.078Z,56.91
2022-09-10T09:20:05.096Z,55.76
2022-09-10T09:22:39.977Z,56.25
2022-09-10T09:25:24.367Z,55.63
2022-09-10T09:27:56.723Z,55.02
2022-09-10T09:30:34.098Z,55.43
2022-09-10T09:33:15.416Z,54.55
2022-09-10T09:35:55.677Z,53.77
2022-09-10T09:38:30.777Z,54.56
2022-09-10T09:41:08.208Z,54.51
2022-09-10T09:43:52.758Z,54.11
2022-09-10T09:46:24.903Z,53.16
2022-09-10T09:49:02.432Z,53.00
2022-09-10T09:51:35.730Z,53.51
2022-09-10T09:54:46.617Z,53.58
2022-09-10T09:57:02.177Z,53.47
2022-09-10T09:59:32.167Z,53.68
2022-09-10T10:02:14.725Z,52.38
2022-09-10T10:04:56.688Z,52.78
2022-09-10T10:07:31.937Z,52.10
2022-09-10T10:10:01.958Z,51.36
2022-09-10T10:12:32.036Z,51.53
2022-09-10T10:15:03.130Z,52.05
2022-09-10T10:17:38.295Z,51.72
2022-09-10T10:20:14.382Z,51.26
2022-09-10T10:22:45.933Z,51.44
2022-09-10T10:25:33.813Z,51.64
2022-09-10T10:28:03.049Z,51.69
2022-09-10T10:30:33.460Z,51.67
2022-09-10T10:33:04.028Z,51.20
2022-09-10T10:36:03.045Z,51.05
2022-09-10T10:39:01.878Z,50.94
2022-09-10T10:42:04.718Z,50.63
2022-09-10T10:44:36.380Z,51.57
2022-09-10T10:47:29.314Z,51.58
2022-09-10T10:50:09.399Z,51.25
2022-09-10T10:53:02.471Z,51.73
2022-09-10T10:55:57.582Z,51.46
2022-09-10T10:58:39.791Z,51.06
2022-09-10T11:01:42.770Z,51.32
2022-09-10T11:04:31.527Z,51.36
2022-09-10T11:07:30.401Z,51.24
2022-09-10T11:10:07.227Z,50.73
2022-09-10T11:12:48.124Z,50.98
2022-09-10T11:15:31.280Z,50.73
2022-09-10T11:18:11.646Z,50.36
2022-09-10T11:20:56.633Z,51.04
2022-09-10T11:23:33.331Z,50.37
2022-09-10T11:26:25.237Z,50.00
2022-09-10T11:29:36.308Z,49.63
2022-09-10T11:32:08.890Z,50.02
2022-09-10T11:34:56.681Z,49.77
2022-09-10T11:37:48.246Z,50.20
2022-09-10T11:40:33.730Z,50.32
2022-09-10T11:43:20.671Z,50.22
2022-09-10T11:45:56.473Z,49.96
2022-09-10T11:49:22.392Z,50.01
2022-09-10T11:51:52.812Z,49.55
2022-09-10T11:54:31.905Z,49.25
2022-09-10T11:57:35.280Z,49.27
2022-09-10T12:00:12.290Z,49.35
2022-09-10T12:03:09.627Z,49.48
2022-09-10T12:05:44.747Z,49.52
2022-09-10T12:08:29.893Z,49.73
2022-09-10T12:11:28.229Z,49.90
2022-09-10T12:13:57.991Z,50.04
2022-09-10T12:16:42.070Z,49.93
2022-09-10T12:19:47.906Z,49.64
2022-09-10T12:22:26.475Z,49.49
2022-09-10T12:25:07.563Z,49.27
2022-09-10T12:28:02.010Z,49.11
2022-09-10T12:30:36.387Z,49.36
2022-09-10T12:33:29.628Z,49.18
2022-09-10T12:35:58.625Z,48.83
2022-09-10T12:39:04.494Z,48.82
2022-09-10T12:41:33.714Z,49.19
2022-09-10T12:44:23.726Z,49.05
2022-09-10T12:47:17.593Z,49.38
2022-09-10T12:49:47.101Z,49.15
2022-09-10T12:52:55.572Z,48.97
2022-09-10T12:55:43.158Z,49.27
2022-09-10T12:58:33.808Z,49.47
2022-09-10T13:01:32.443Z,49.50
2022-09-10T13:04:02.970Z,49.47
2022-09-10T13:07:07.673Z,49.45
2022-09-10T13:09:40.244Z,49.65
2022-09-10T13:12:24.291Z,49.55
2022-09-10T13:14:57.936Z,49.45
2022-09-10T13:17:38.083Z,49.36
2022-09-10T13:20:35.065Z,49.48
2022-09-10T13:23:09.643Z,49.49
2022-09-10T13:25:43.060Z,49.64
2022-09-10T13:28:35.597Z,49.43
2022-09-10T13:31:11.438Z,49.61
2022-09-10T13:34:03.592Z,49.58
2022-09-10T13:37:02.508Z,49.52
2022-09-10T13:39:43.354Z,49.77
2022-09-10T13:42:43.022Z,50.20
2022-09-10T13:45:16.892Z,49.87
2022-09-10T13:47:48.158Z,50.07
2022-09-10T13:50:31.561Z,50.10
2022-09-10T13:53:00.914Z,50.08
2022-09-10T13:55:32.057Z,50.18
2022-09-10T13:58:17.477Z,50.28
2022-09-10T14:00:59.073Z,50.42
2022-09-10T14:03:36.071Z,50.57
2022-09-10T14:06:30.042Z,50.76
2022-09-10T14:09:05.818Z,50.62
2022-09-10T14:11:41.597Z,50.71
2022-09-10T14:14:23.278Z,50.89
2022-09-10T14:16:56.552Z,51.04
2022-09-10T14:19:28.598Z,51.04
2022-09-10T14:21:58.476Z,50.89
2022-09-10T14:24:30.668Z,51.13
2022-09-10T14:27:26.398Z,51.00
2022-09-10T14:29:58.343Z,51.07
2022-09-10T14:32:34.546Z,51.18
2022-09-10T14:35:41.121Z,51.36
2022-09-10T14:38:26.870Z,51.33
2022-09-10T14:41:06.658Z,51.20
2022-09-10T14:43:40.968Z,51.29
2022-09-10T14:46:35.194Z,51.29
2022-09-10T14:49:11.608Z,51.16
2022-09-10T14:51:41.221Z,51.46
2022-09-10T14:54:12.265Z,51.74
2022-09-10T14:56:46.778Z,51.85
2022-09-10T14:59:23.382Z,51.89
2022-09-10T15:01:54.280Z,52.08
2022-09-10T15:04:27.072Z,52.28
2022-09-10T15:07:00.697Z,52.38
2022-09-10T15:09:31.748Z,52.54
2022-09-10T15:12:05.903Z,52.69
2022-09-10T15:14:37.179Z,52.71
2022-09-10T15:17:06.813Z,52.88
2022-09-10T15:19:36.282Z,53.21
2022-09-10T15:22:05.157Z,53.41
2022-09-10T15:24:47.413Z,53.74
2022-09-10T15:27:22.482Z,54.01
2022-09-10T15:29:52.174Z,54.04
2022-09-10T15:32:31.155Z,54.13
2022-09-10T15:35:01.799Z,54.33
2022-09-10T15:37:36.627Z,54.58
2022-09-10T15:40:06.599Z,54.59
2022-09-10T15:42:38.185Z,54.38
2022-09-10T15:45:16.496Z,54.70
2022-09-10T15:47:46.460Z,54.95
2022-09-10T15:50:18.182Z,55.02
2022-09-10T15:52:48.117Z,55.00
2022-09-10T15:55:19.677Z,55.15
2022-09-10T15:57:52.521Z,55.51
2022-09-10T16:00:22.267Z,55.53
2022-09-10T16:02:56.889Z,55.50
2022-09-10T16:05:40.343Z,55.87
2022-09-10T16:08:12.802Z,55.97
2022-09-10T16:10:47.041Z,56.09
2022-09-10T16:13:16.126Z,56.80
2022-09-10T16:15:45.545Z,56.85
2022-09-10T16:18:14.509Z,56.87
2022-09-10T16:20:43.919Z,57.03
2022-09-10T16:23:13.237Z,57.40
2022-09-10T16:25:52.438Z,57.53
2022-09-10T16:28:22.366Z,57.17
2022-09-10T16:30:51.915Z,56.99
2022-09-10T16:33:20.557Z,57.51
2022-09-10T16:35:49.346Z,57.54
2022-09-10T16:38:18.135Z,57.79
2022-09-10T16:40:47.436Z,58.02
2022-09-10T16:43:16.238Z,57.75
2022-09-10T16:45:51.331Z,57.31
2022-09-10T16:48:19.953Z,57.43
2022-09-10T16:50:48.633Z,57.47
2022-09-10T16:53:17.826Z,57.51
2022-09-10T16:55:46.520Z,57.77
2022-09-10T16:58:15.203Z,58.17
2022-09-10T17:00:44.922Z,58.14
2022-09-10T17:03:14.113Z,57.89
2022-09-10T17:05:45.124Z,58.28
2022-09-10T17:08:13.742Z,58.56
2022-09-10T17:10:42.440Z,58.22
2022-09-10T17:13:11.730Z,58.16
2022-09-10T17:15:40.871Z,59.10
2022-09-10T17:18:12.252Z,59.07
2022-09-10T17:20:44.240Z,59.00
2022-09-10T17:23:13.847Z,59.04
2022-09-10T17:25:42.794Z,59.42
2022-09-10T17:28:11.534Z,59.52
2022-09-10T17:30:40.137Z,59.68
2022-09-10T17:33:08.902Z,59.68
2022-09-10T17:35:37.586Z,59.69
2022-09-10T17:38:06.787Z,59.95
2022-09-10T17:40:35.680Z,59.92
2022-09-10T17:43:04.366Z,60.15
2022-09-10T17:45:33.775Z,60.19
2022-09-10T17:48:02.865Z,60.22
2022-09-10T17:50:31.553Z,60.10
2022-09-10T17:53:00.239Z,59.98
2022-09-10T17:55:33.465Z,60.15
2022-09-10T17:58:02.425Z,60.11
2022-09-10T18:00:31.212Z,60.33
2022-09-10T18:02:59.939Z,60.41
2022-09-10T18:05:29.506Z,60.43
2022-09-10T18:07:58.398Z,60.49
2022-09-10T18:10:27.186Z,60.86
2022-09-10T18:13:00.159Z,60.94
2022-09-10T18:15:30.397Z,60.79
2022-09-10T18:17:59.671Z,61.14
2022-09-10T18:20:29.729Z,60.91
2022-09-10T18:22:59.221Z,60.83
2022-09-10T18:25:32.925Z,61.29
2022-09-10T18:28:01.928Z,61.69
2022-09-10T18:30:30.610Z,61.66
2022-09-10T18:32:59.497Z,61.30
2022-09-10T18:35:28.085Z,61.73
2022-09-10T18:37:57.690Z,61.98
2022-09-10T18:40:26.377Z,62.10
2022-09-10T18:42:55.276Z,62.13
2022-09-10T18:45:23.886Z,62.63
2022-09-10T18:47:52.850Z,62.49
2022-09-10T18:50:21.531Z,63.58
2022-09-10T18:52:50.322Z,63.29
2022-09-10T18:55:19.008Z,63.23
2022-09-10T18:57:48.411Z,63.57
2022-09-10T19:00:16.930Z,63.31
2022-09-10T19:02:46.107Z,63.39
2022-09-10T19:05:14.989Z,63.50
2022-09-10T19:07:43.980Z,63.65
2022-09-10T19:10:12.765Z,63.83
2022-09-10T19:12:41.352Z,64.03
2022-09-10T19:15:10.863Z,64.03
2022-09-10T19:17:40.157Z,63.93
2022-09-10T19:20:10.182Z,63.81
2022-09-10T19:22:38.865Z,64.14
2022-09-10T19:25:07.986Z,64.73
2022-09-10T19:27:36.961Z,64.77
2022-09-10T19:30:06.735Z,64.71
2022-09-10T19:32:35.450Z,64.46
2022-09-10T19:35:04.399Z,64.90
2022-09-10T19:37:33.335Z,65.97
2022-09-10T19:40:02.521Z,66.48
2022-09-10T19:42:31.229Z,67.25
2022-09-10T19:45:00.004Z,68.28
2022-09-10T19:47:28.583Z,68.02
2022-09-10T19:49:59.444Z,69.17
2022-09-10T19:52:28.120Z,68.93
2022-09-10T19:54:57.316Z,69.42
2022-09-10T19:57:25.901Z,69.43
2022-09-10T19:59:54.891Z,70.07
2022-09-10T20:02:23.529Z,70.02
2022-09-10T20:04:52.065Z,71.31
2022-09-10T20:07:21.949Z,72.22
2022-09-10T20:09:50.663Z,72.80
2022-09-10T20:12:19.351Z,72.99
2022-09-10T20:14:48.342Z,74.00
2022-09-10T20:17:17.457Z,73.57
2022-09-10T20:19:46.020Z,73.35
2022-09-10T20:22:14.602Z,72.59
2022-09-10T20:24:43.194Z,71.97
2022-09-10T20:27:11.981Z,71.83
2022-09-10T20:29:41.793Z,72.10
2022-09-10T20:32:10.377Z,72.13
2022-09-10T20:34:39.063Z,72.30
2022-09-10T20:37:07.755Z,72.16
2022-09-10T20:39:36.688Z,72.34
2022-09-10T20:42:06.251Z,71.90
2022-09-10T20:44:34.833Z,72.30
2022-09-10T20:47:04.034Z,71.72
2022-09-10T20:49:32.925Z,71.85
2022-09-10T20:52:01.506Z,72.21
2022-09-10T20:54:30.400Z,72.06
2022-09-10T20:56:58.984Z,72.32
2022-09-10T20:59:29.532Z,72.70
2022-09-10T21:01:58.284Z,72.11
2022-09-10T21:04:27.403Z,71.94
2022-09-10T21:06:55.860Z,72.24
2022-09-10T21:09:25.001Z,71.90
2022-09-10T21:11:53.765Z,71.93
2022-09-10T21:14:22.457Z,71.92
2022-09-10T21:16:51.241Z,71.95
2022-09-10T21:19:19.872Z,72.21
2022-09-10T21:21:51.704Z,72.48
2022-09-10T21:24:22.933Z,72.14
2022-09-10T21:26:53.593Z,72.31
2022-09-10T21:29:22.966Z,71.64
2022-09-10T21:31:53.705Z,71.60
2022-09-10T21:34:23.878Z,71.66
2022-09-10T21:36:52.613Z,71.74
2022-09-10T21:39:21.217Z,71.67
2022-09-10T21:41:51.052Z,72.02
2022-09-10T21:44:22.333Z,72.29
2022-09-10T21:46:52.623Z,71.80
2022-09-10T21:49:21.473Z,72.05
2022-09-10T21:51:50.811Z,72.60
2022-09-10T21:54:21.285Z,72.34
2022-09-10T21:56:51.535Z,72.35
2022-09-10T21:59:21.850Z,72.27
2022-09-10T22:01:50.884Z,72.32
2022-09-10T22:04:22.774Z,72.44
2022-09-10T22:06:54.249Z,72.60
2022-09-10T22:09:24.703Z,72.52
2022-09-10T22:11:54.607Z,72.62
2022-09-10T22:14:25.144Z,72.45
2022-09-10T22:16:54.641Z,72.40
2022-09-10T22:19:25.399Z,72.47
2022-09-10T22:21:56.299Z,72.40
2022-09-10T22:24:26.430Z,72.38
2022-09-10T22:26:55.333Z,72.45
2022-09-10T22:29:25.357Z,73.00
2022-09-10T22:31:54.238Z,73.47
2022-09-10T22:34:23.537Z,72.82
2022-09-10T22:36:52.117Z,72.52
2022-09-10T22:39:22.134Z,73.14
2022-09-10T22:41:51.845Z,73.05
2022-09-10T22:44:20.641Z,73.10
2022-09-10T22:46:49.899Z,73.24
2022-09-10T22:49:20.158Z,72.94
2022-09-10T22:51:49.470Z,73.32
2022-09-10T22:54:18.459Z,73.04
2022-09-10T22:56:47.139Z,72.97
2022-09-10T22:59:16.241Z,73.00
2022-09-10T23:01:48.703Z,73.26
2022-09-10T23:04:17.601Z,73.25
2022-09-10T23:06:46.506Z,73.61
2022-09-10T23:09:17.752Z,73.83
2022-09-10T23:11:46.913Z,73.32
2022-09-10T23:14:19.491Z,74.25
2022-09-10T23:16:50.384Z,73.78
2022-09-10T23:19:22.854Z,73.59
2022-09-10T23:21:54.886Z,74.02
2022-09-10T23:24:25.402Z,73.90
2022-09-10T23:26:54.672Z,74.77
2022-09-10T23:29:24.414Z,74.11
2022-09-10T23:31:55.994Z,73.75
2022-09-10T23:34:24.694Z,73.72
2022-09-10T23:36:53.969Z,74.43
2022-09-10T23:39:24.983Z,75.13
2022-09-10T23:41:58.461Z,74.88
2022-09-10T23:44:27.207Z,75.03
2022-09-10T23:46:56.004Z,75.47
2022-09-10T23:49:24.683Z,75.50
2022-09-10T23:51:53.577Z,75.01
2022-09-10T23:54:22.258Z,75.09
2022-09-10T23:56:51.870Z,75.20
2022-09-10T23:59:20.762Z,75.34
